Time;durP1;ratioP1;P1;durP2;ratioP2;P2;SDS_P1;SDS_P2;PMS_P1;PMS_P2;Temp;Humidity;BMP_temperature;BMP_pressure;BME280_temperature;BME280_humidity;BME280_pressure;Samples;Min_cycle;Max_cycle;Signal;HPM_P1;HPM_P2
2021/12/26 00:00:32;;;;;;;3.40;2.22;;;0.60;78.80;;;;;;5049382;28;20450;-71
2021/12/26 00:02:59;;;;;;;6.78;2.35;;;0.60;78.50;;;;;;5043804;28;20033;-70
2021/12/26 00:05:26;;;;;;;4.97;2.20;;;0.70;78.40;;;;;;5039983;28;20037;-70
2021/12/26 00:07:52;;;;;;;5.25;2.15;;;0.60;78.20;;;;;;5040887;28;20469;-70
2021/12/26 00:10:20;;;;;;;3.80;2.30;;;0.60;78.10;;;;;;5051117;28;20029;-70
2021/12/26 00:12:47;;;;;;;4.75;2.17;;;0.60;78.20;;;;;;5040929;28;20029;-71
2021/12/26 00:15:12;;;;;;;9.55;2.20;;;0.60;78.20;;;;;;5046108;28;20040;-71
2021/12/26 00:17:38;;;;;;;2.55;1.85;;;0.60;77.80;;;;;;5032061;28;20033;-71
2021/12/26 00:20:06;;;;;;;5.47;1.55;;;0.60;77.60;;;;;;5033719;28;20030;-71
2021/12/26 00:22:32;;;;;;;2.97;1.75;;;0.60;77.80;;;;;;5033607;28;20029;-71
2021/12/26 00:24:58;;;;;;;2.50;1.83;;;0.60;77.80;;;;;;5044450;28;20514;-71
2021/12/26 00:27:24;;;;;;;2.83;1.60;;;0.60;78.00;;;;;;5033783;28;20033;-70
2021/12/26 00:29:50;;;;;;;2.72;1.10;;;0.50;78.60;;;;;;5052733;28;20536;-71
2021/12/26 00:32:16;;;;;;;4.50;1.40;;;0.60;79.10;;;;;;5036762;28;20044;-71
2021/12/26 00:34:42;;;;;;;3.63;1.85;;;0.50;79.60;;;;;;5041614;28;20033;-71
2021/12/26 00:37:08;;;;;;;5.38;1.90;;;0.50;80.00;;;;;;5052397;28;20472;-70
2021/12/26 00:39:35;;;;;;;2.55;1.48;;;0.50;80.40;;;;;;5052119;28;20099;-70
2021/12/26 00:42:02;;;;;;;2.55;1.45;;;0.60;80.00;;;;;;5051131;28;20033;-70
2021/12/26 00:44:27;;;;;;;6.47;2.13;;;0.50;80.10;;;;;;5052330;28;20095;-70
2021/12/26 00:46:53;;;;;;;2.92;1.50;;;0.60;80.50;;;;;;5048126;28;20030;-70
2021/12/26 00:49:21;;;;;;;1.83;1.35;;;0.50;80.30;;;;;;5048835;28;20064;-70
2021/12/26 00:51:47;;;;;;;2.53;1.42;;;0.60;80.70;;;;;;5051616;28;20432;-70
2021/12/26 00:54:13;;;;;;;2.00;1.60;;;0.60;80.90;;;;;;5039202;28;20051;-70
2021/12/26 00:56:38;;;;;;;3.17;2.00;;;0.50;80.70;;;;;;5051119;28;20112;-71
2021/12/26 00:59:04;;;;;;;5.55;2.25;;;0.60;80.50;;;;;;5045898;28;20526;-70
2021/12/26 01:01:30;;;;;;;3.03;2.08;;;0.60;80.30;;;;;;5043635;28;20048;-70
2021/12/26 01:03:56;;;;;;;2.45;1.70;;;0.60;80.50;;;;;;5052210;28;20040;-70
2021/12/26 01:06:23;;;;;;;6.57;1.88;;;0.60;80.60;;;;;;5050274;28;20485;-70
2021/12/26 01:08:51;;;;;;;2.13;1.40;;;0.60;80.70;;;;;;5051954;28;20060;-70
2021/12/26 01:11:33;;;;;;;3.55;2.05;;;0.60;80.60;;;;;;5050817;28;20499;-71
2021/12/26 01:14:04;;;;;;;4.45;2.13;;;0.50;80.40;;;;;;5050326;28;20029;-70
2021/12/26 01:17:12;;;;;;;7.10;2.00;;;0.60;80.20;;;;;;5052182;28;20040;-70
2021/12/26 01:19:54;;;;;;;4.68;1.80;;;0.50;79.30;;;;;;5037268;28;20052;-71
2021/12/26 01:22:22;;;;;;;3.75;1.63;;;0.60;79.60;;;;;;5050794;28;20028;-70
2021/12/26 01:24:59;;;;;;;4.28;1.70;;;0.50;79.30;;;;;;5051082;28;20068;-70
2021/12/26 01:27:27;;;;;;;2.35;1.90;;;0.60;79.40;;;;;;5049861;28;20024;-71
2021/12/26 01:29:53;;;;;;;1.38;1.27;;;0.50;79.40;;;;;;5042367;28;20109;-70
2021/12/26 01:32:20;;;;;;;1.70;1.42;;;0.50;79.70;;;;;;5047428;28;20032;-70
2021/12/26 01:35:05;;;;;;;2.95;1.88;;;0.50;79.80;;;;;;5049888;28;20531;-70
2021/12/26 01:37:54;;;;;;;4.90;2.35;;;0.50;79.60;;;;;;5023941;28;20076;-70
2021/12/26 01:40:50;;;;;;;2.85;1.75;;;0.50;79.00;;;;;;5031818;28;20045;-70
2021/12/26 01:43:35;;;;;;;2.70;1.60;;;0.50;78.10;;;;;;5030570;28;20041;-70
2021/12/26 01:46:07;;;;;;;;;;;0.40;78.00;;;;;;5041535;28;20035;-70
2021/12/26 01:48:35;;;;;;;2.63;1.50;;;0.40;78.70;;;;;;5049752;28;19908;-70
2021/12/26 01:51:01;;;;;;;5.93;2.00;;;0.30;78.70;;;;;;5038952;28;20043;-70
2021/12/26 01:53:36;;;;;;;2.00;1.50;;;0.20;79.00;;;;;;5049086;28;20052;-70
2021/12/26 01:56:03;;;;;;;5.93;2.47;;;0.20;79.60;;;;;;5036059;28;20026;-70
2021/12/26 01:58:30;;;;;;;3.72;2.22;;;0.10;79.30;;;;;;5041966;28;20385;-70
2021/12/26 02:01:11;;;;;;;3.90;2.03;;;0.00;78.80;;;;;;5044159;28;20473;-70
2021/12/26 02:03:38;;;;;;;3.65;1.85;;;-0.10;78.80;;;;;;5035625;28;20033;-70
2021/12/26 02:06:05;;;;;;;3.83;2.22;;;-0.10;78.50;;;;;;5032372;28;20381;-70
2021/12/26 02:08:39;;;;;;;2.80;1.60;;;-0.10;78.40;;;;;;5038402;28;20546;-70
2021/12/26 02:11:06;;;;;;;3.30;1.60;;;-0.10;78.50;;;;;;5033594;28;20030;-70
2021/12/26 02:13:38;;;;;;;1.85;1.35;;;-0.10;79.10;;;;;;5036179;28;20044;-72
2021/12/26 02:16:06;;;;;;;;;;;-0.10;79.20;;;;;;5044128;28;20036;-73
2021/12/26 02:18:32;;;;;;;1.40;1.23;;;-0.10;79.70;;;;;;5039120;28;19915;-70
2021/12/26 02:29:44;;;;;;;2.25;1.10;;;-0.10;79.60;;;;;;5042545;28;20112;-71
2021/12/26 02:32:15;;;;;;;1.55;1.40;;;0.00;79.80;;;;;;5032160;28;20030;-71
2021/12/26 02:34:41;;;;;;;1.05;1.05;;;-0.10;79.60;;;;;;5033605;28;20061;-70
2021/12/26 02:37:06;;;;;;;1.40;1.30;;;0.00;80.00;;;;;;5050697;28;20440;-70
2021/12/26 02:39:33;;;;;;;1.83;0.93;;;-0.10;80.00;;;;;;5034537;28;20129;-70
2021/12/26 02:42:00;;;;;;;2.70;1.65;;;0.00;80.40;;;;;;5033479;28;20423;-70
2021/12/26 02:44:26;;;;;;;1.98;1.55;;;0.00;80.10;;;;;;5032545;28;20037;-70
2021/12/26 02:46:51;;;;;;;3.60;2.10;;;0.00;80.80;;;;;;5033503;28;20036;-70
2021/12/26 02:49:22;;;;;;;1.20;1.10;;;0.00;80.60;;;;;;5039298;28;20037;-70
2021/12/26 02:51:50;;;;;;;1.60;1.38;;;0.00;80.60;;;;;;5049905;28;20017;-71
2021/12/26 02:54:16;;;;;;;1.95;1.50;;;0.00;80.50;;;;;;5040957;28;20109;-71
2021/12/26 02:56:41;;;;;;;4.80;1.77;;;0.00;80.30;;;;;;5041095;28;20116;-71
2021/12/26 02:59:07;;;;;;;3.38;1.70;;;0.00;80.40;;;;;;5049831;28;20520;-71
2021/12/26 03:01:33;;;;;;;5.68;1.80;;;0.00;80.40;;;;;;5040396;28;20034;-71
2021/12/26 03:04:04;;;;;;;1.75;1.25;;;0.00;80.60;;;;;;5046020;28;20382;-71
2021/12/26 03:06:53;;;;;;;1.60;1.33;;;0.10;80.60;;;;;;5047527;28;20387;-71
2021/12/26 03:09:20;;;;;;;8.30;1.58;;;0.10;80.50;;;;;;5054549;28;20052;-71
2021/12/26 03:11:47;;;;;;;1.98;1.63;;;0.10;80.10;;;;;;5053824;28;20457;-71
2021/12/26 03:14:12;;;;;;;2.65;1.85;;;0.10;80.00;;;;;;5041047;28;20043;-71
2021/12/26 03:16:47;;;;;;;4.18;1.65;;;0.10;79.90;;;;;;5038821;28;20480;-70
2021/12/26 03:19:13;;;;;;;1.70;1.40;;;0.20;79.70;;;;;;5054048;28;20037;-70
2021/12/26 03:21:39;;;;;;;3.97;2.00;;;0.10;79.40;;;;;;5055571;28;20025;-71
2021/12/26 03:24:04;;;;;;;4.07;1.92;;;0.10;79.20;;;;;;5053277;28;20037;-71
2021/12/26 03:26:31;;;;;;;4.40;2.10;;;0.20;78.90;;;;;;5033221;28;20039;-71
2021/12/26 03:28:56;;;;;;;4.82;1.80;;;0.20;78.50;;;;;;5033186;28;20441;-71
2021/12/26 03:31:22;;;;;;;5.22;2.20;;;0.20;78.30;;;;;;5046988;28;20037;-71
2021/12/26 03:33:48;;;;;;;2.80;1.83;;;0.10;77.90;;;;;;5032807;28;20037;-71
2021/12/26 03:36:13;;;;;;;3.30;1.63;;;0.10;77.60;;;;;;5032760;28;20025;-71
2021/12/26 03:38:40;;;;;;;4.53;1.80;;;0.20;77.30;;;;;;5033977;28;20064;-71
2021/12/26 03:41:15;;;;;;;4.45;2.17;;;0.10;77.00;;;;;;5041867;28;20025;-71
2021/12/26 03:43:46;;;;;;;3.42;2.10;;;0.10;76.80;;;;;;5042535;28;20063;-71
2021/12/26 03:46:12;;;;;;;2.97;1.77;;;0.10;76.60;;;;;;5051808;28;20383;-71
2021/12/26 03:48:39;;;;;;;2.38;1.83;;;0.10;76.50;;;;;;5043565;28;20168;-71
2021/12/26 03:51:05;;;;;;;5.68;2.05;;;0.10;76.20;;;;;;5036145;28;20116;-70
2021/12/26 03:53:31;;;;;;;4.20;1.92;;;0.00;75.90;;;;;;5047875;28;20041;-70
2021/12/26 03:55:58;;;;;;;2.55;1.35;;;-0.10;75.80;;;;;;5050652;28;20047;-71
2021/12/26 03:58:25;;;;;;;1.70;1.48;;;0.00;75.90;;;;;;5051963;28;20029;-71
2021/12/26 04:00:53;;;;;;;6.43;2.20;;;-0.10;75.80;;;;;;5047537;28;20056;-71
2021/12/26 04:03:22;;;;;;;3.30;1.70;;;-0.10;75.60;;;;;;5037271;28;20507;-70
2021/12/26 04:05:56;;;;;;;4.68;1.65;;;-0.10;75.80;;;;;;5044954;28;20091;-70
2021/12/26 04:08:22;;;;;;;5.85;2.17;;;-0.20;75.80;;;;;;5032788;28;20033;-71
2021/12/26 04:10:49;;;;;;;2.67;2.17;;;-0.20;75.50;;;;;;5032880;28;20068;-70
2021/12/26 04:13:15;;;;;;;4.57;2.00;;;-0.20;75.60;;;;;;5044192;28;20068;-70
2021/12/26 04:15:41;;;;;;;2.53;1.48;;;-0.20;75.40;;;;;;5044774;28;20064;-71
2021/12/26 04:18:07;;;;;;;2.88;1.65;;;-0.20;75.40;;;;;;5047496;28;20025;-71
2021/12/26 04:20:34;;;;;;;3.55;1.65;;;-0.30;75.30;;;;;;5040631;28;20120;-71
2021/12/26 04:23:00;;;;;;;1.75;1.35;;;-0.30;75.50;;;;;;5035588;28;20153;-71
2021/12/26 04:25:27;;;;;;;4.22;1.83;;;-0.30;75.70;;;;;;5052827;28;20041;-71
2021/12/26 04:27:54;;;;;;;6.68;1.63;;;-0.30;75.70;;;;;;5033619;28;20021;-70
2021/12/26 04:30:21;;;;;;;8.18;2.00;;;-0.30;75.70;;;;;;5043329;28;20025;-71
2021/12/26 04:32:48;;;;;;;3.60;1.52;;;-0.30;75.50;;;;;;5031677;28;20079;-71
2021/12/26 04:35:16;;;;;;;3.15;1.55;;;-0.30;75.40;;;;;;5031250;28;20029;-71
2021/12/26 04:37:42;;;;;;;2.40;1.77;;;-0.30;75.30;;;;;;5044977;28;20477;-71
2021/12/26 04:40:11;;;;;;;2.97;1.23;;;-0.20;75.50;;;;;;5031920;28;20055;-71
2021/12/26 04:42:55;;;;;;;3.00;1.70;;;-0.20;76.10;;;;;;5052502;28;20599;-71
2021/12/26 04:45:30;;;;;;;2.42;1.90;;;-0.20;75.30;;;;;;5045179;28;20485;-71
2021/12/26 04:48:15;;;;;;;3.78;2.00;;;-0.20;75.40;;;;;;5047120;28;20040;-71
2021/12/26 04:50:42;;;;;;;2.90;1.90;;;-0.20;75.40;;;;;;5046938;28;20029;-71
2021/12/26 04:53:08;;;;;;;1.13;1.05;;;-0.20;75.50;;;;;;5039341;28;20029;-71
2021/12/26 04:55:34;;;;;;;2.97;1.75;;;-0.20;75.50;;;;;;5035965;28;20481;-71
2021/12/26 04:58:00;;;;;;;1.90;1.45;;;-0.20;75.80;;;;;;5049446;28;20064;-70
2021/12/26 05:00:29;;;;;;;3.05;1.83;;;-0.20;75.90;;;;;;5050655;28;20029;-70
2021/12/26 05:02:57;;;;;;;3.60;2.13;;;-0.20;76.40;;;;;;5050828;28;20037;-71
2021/12/26 05:05:26;;;;;;;6.03;2.30;;;-0.20;76.30;;;;;;5043691;28;20041;-71
2021/12/26 05:07:53;;;;;;;1.45;1.13;;;-0.20;76.60;;;;;;5031572;28;20551;-71
2021/12/26 05:10:19;;;;;;;2.55;1.40;;;-0.20;76.80;;;;;;5043184;28;20033;-71
2021/12/26 05:12:45;;;;;;;4.45;1.92;;;-0.20;77.20;;;;;;5031526;28;20026;-71
2021/12/26 05:15:12;;;;;;;3.20;1.58;;;-0.20;77.60;;;;;;5040674;28;20029;-71
2021/12/26 05:17:40;;;;;;;2.47;1.77;;;-0.20;77.70;;;;;;5054037;28;20358;-71
2021/12/26 05:20:09;;;;;;;2.10;1.60;;;-0.20;77.80;;;;;;5041120;28;20026;-70
2021/12/26 05:22:36;;;;;;;4.10;1.20;;;-0.20;77.80;;;;;;5047307;28;20480;-70
2021/12/26 05:25:03;;;;;;;4.38;1.95;;;-0.20;78.00;;;;;;5041390;28;20056;-71
2021/12/26 05:27:29;;;;;;;1.40;1.30;;;-0.10;78.10;;;;;;5043211;28;20030;-72
2021/12/26 05:29:55;;;;;;;2.58;1.27;;;-0.10;78.60;;;;;;5041813;28;20126;-72
2021/12/26 05:32:20;;;;;;;3.08;1.60;;;-0.10;78.90;;;;;;5050667;28;20032;-70
2021/12/26 05:34:48;;;;;;;4.05;2.17;;;-0.10;79.00;;;;;;5050123;28;20121;-70
2021/12/26 05:37:15;;;;;;;1.63;1.33;;;-0.10;78.90;;;;;;5031972;28;20481;-71
2021/12/26 05:39:42;;;;;;;3.20;1.65;;;-0.10;78.70;;;;;;5033245;28;20124;-70
2021/12/26 05:42:15;;;;;;;2.72;1.85;;;0.00;78.60;;;;;;5046873;28;20032;-70
2021/12/26 05:44:45;;;;;;;1.63;1.52;;;0.00;78.70;;;;;;5034763;28;20037;-71
2021/12/26 05:47:13;;;;;;;3.97;1.25;;;-0.10;79.10;;;;;;5033792;28;20044;-70
2021/12/26 05:50:09;;;;;;;3.60;2.20;;;0.00;80.00;;;;;;5036254;28;20087;-70
2021/12/26 05:52:35;;;;;;;2.15;1.83;;;0.00;79.60;;;;;;5053338;28;20021;-70
2021/12/26 05:55:11;;;;;;;5.18;2.15;;;0.00;79.40;;;;;;5039992;28;20412;-70
2021/12/26 05:57:37;;;;;;;2.10;1.42;;;0.00;79.20;;;;;;5046325;28;20029;-70
2021/12/26 06:00:09;;;;;;;5.97;1.60;;;0.00;79.10;;;;;;5047356;28;20032;-70
2021/12/26 06:02:41;;;;;;;3.50;1.77;;;0.00;78.70;;;;;;5036872;28;20025;-70
2021/12/26 06:05:08;;;;;;;3.83;1.73;;;0.00;78.50;;;;;;5037806;28;20071;-70
2021/12/26 06:07:34;;;;;;;3.53;1.60;;;0.10;78.70;;;;;;5042568;28;20055;-70
2021/12/26 06:10:00;;;;;;;3.78;1.95;;;0.00;78.70;;;;;;5051573;28;20031;-70
2021/12/26 06:12:26;;;;;;;1.83;1.60;;;0.00;78.70;;;;;;5041988;28;20034;-70
2021/12/26 06:14:52;;;;;;;7.03;1.80;;;0.00;78.80;;;;;;5034021;28;20029;-70
2021/12/26 06:17:17;;;;;;;4.50;2.20;;;0.00;78.70;;;;;;5033444;28;20075;-70
2021/12/26 06:20:13;;;;;;;2.47;1.92;;;0.00;78.30;;;;;;5034992;28;20117;-70
2021/12/26 06:22:44;;;;;;;4.75;2.20;;;0.00;78.10;;;;;;5046206;28;20499;-70
2021/12/26 06:25:12;;;;;;;0.60;0.60;;;0.00;77.90;;;;;;5035175;28;20041;-70
2021/12/26 06:27:48;;;;;;;3.80;1.88;;;0.00;79.60;;;;;;5033584;28;20022;-71
2021/12/26 06:30:32;;;;;;;4.55;2.60;;;0.00;80.00;;;;;;5034239;28;20048;-70
2021/12/26 06:33:18;;;;;;;4.25;1.70;;;0.00;79.20;;;;;;5034944;28;20029;-70
2021/12/26 06:35:44;;;;;;;4.93;2.10;;;0.00;79.30;;;;;;5034864;28;20040;-71
2021/12/26 06:38:37;;;;;;;6.45;2.40;;;-0.10;79.60;;;;;;5034522;28;20378;-70
2021/12/26 06:41:22;;;;;;;7.50;2.20;;;0.00;79.20;;;;;;5055002;28;20098;-71
2021/12/26 06:44:07;;;;;;;2.20;1.00;;;0.00;79.90;;;;;;5042958;28;20472;-70
2021/12/26 06:47:02;;;;;;;1.55;1.45;;;0.00;80.40;;;;;;5053215;28;20385;-71
2021/12/26 06:49:37;;;;;;;5.93;1.33;;;0.00;80.60;;;;;;5051724;28;20036;-71
2021/12/26 06:52:04;;;;;;;1.15;1.08;;;0.10;80.70;;;;;;5062914;28;20596;-70
2021/12/26 06:54:30;;;;;;;1.58;1.45;;;0.10;81.40;;;;;;5054405;28;20136;-70
2021/12/26 06:56:56;;;;;;;2.22;1.48;;;0.00;82.10;;;;;;5041029;28;20504;-71
2021/12/26 06:59:22;;;;;;;2.67;1.52;;;0.10;82.40;;;;;;5053850;28;20522;-70
2021/12/26 07:01:48;;;;;;;2.50;1.40;;;0.10;82.70;;;;;;5037661;28;20021;-71
2021/12/26 07:04:16;;;;;;;1.15;1.05;;;0.10;82.80;;;;;;5033269;28;20041;-70
2021/12/26 07:06:43;;;;;;;0.88;0.88;;;0.10;83.00;;;;;;5036823;28;20384;-70
2021/12/26 07:09:21;;;;;;;1.88;1.33;;;0.10;83.20;;;;;;5040260;28;20037;-71
2021/12/26 07:11:47;;;;;;;0.77;0.73;;;0.10;83.50;;;;;;5048044;28;20021;-71
2021/12/26 07:14:25;;;;;;;3.67;1.90;;;0.10;83.60;;;;;;5048078;28;20037;-70
2021/12/26 07:16:52;;;;;;;4.85;1.55;;;0.00;83.80;;;;;;5043974;28;20025;-70
2021/12/26 07:19:18;;;;;;;1.52;1.42;;;0.10;83.90;;;;;;5031997;28;20041;-71
2021/12/26 07:21:43;;;;;;;2.40;1.48;;;0.10;83.90;;;;;;5034246;28;20462;-70
2021/12/26 07:24:11;;;;;;;1.58;1.15;;;0.10;84.10;;;;;;5035836;28;20470;-71
2021/12/26 07:26:38;;;;;;;1.30;1.20;;;0.10;84.10;;;;;;5041840;28;20026;-71
2021/12/26 07:29:13;;;;;;;3.83;1.30;;;0.10;84.30;;;;;;5050624;28;20510;-70
2021/12/26 07:31:42;;;;;;;0.73;0.63;;;0.10;84.50;;;;;;5040313;28;20029;-70
2021/12/26 07:34:07;;;;;;;4.10;1.75;;;0.10;84.60;;;;;;5044763;28;20025;-70
2021/12/26 07:36:35;;;;;;;0.90;0.90;;;0.10;84.50;;;;;;5039680;28;20037;-71
2021/12/26 07:39:12;;;;;;;1.85;1.40;;;0.10;84.60;;;;;;5033829;28;20041;-71
2021/12/26 07:41:38;;;;;;;4.40;2.20;;;0.10;84.90;;;;;;5034387;28;20021;-71
2021/12/26 07:44:07;;;;;;;3.22;1.80;;;0.10;85.00;;;;;;5045440;28;20048;-71
2021/12/26 07:46:38;;;;;;;2.25;1.35;;;0.10;85.10;;;;;;5032123;28;20033;-71
2021/12/26 07:49:14;;;;;;;1.45;1.35;;;0.10;85.20;;;;;;5037004;28;20137;-71
2021/12/26 07:52:00;;;;;;;6.57;1.67;;;0.10;85.20;;;;;;5033980;28;20384;-73
2021/12/26 07:54:45;;;;;;;4.88;2.40;;;0.10;85.20;;;;;;5034624;28;20095;-71
2021/12/26 07:57:30;;;;;;;2.55;1.83;;;0.10;85.10;;;;;;5033007;28;20044;-72
2021/12/26 08:00:27;;;;;;;2.17;1.55;;;0.10;84.90;;;;;;5032579;28;20088;-71
2021/12/26 08:02:54;;;;;;;1.98;1.17;;;0.10;84.90;;;;;;5033902;28;20034;-72
2021/12/26 08:05:55;;;;;;;3.40;2.10;;;0.10;85.10;;;;;;5032387;28;20069;-69
2021/12/26 08:08:45;;;;;;;1.52;1.33;;;0.10;84.90;;;;;;5030623;28;20087;-70
2021/12/26 08:11:12;;;;;;;1.58;1.20;;;0.00;85.20;;;;;;5030919;28;20511;-70
2021/12/26 08:13:37;;;;;;;1.52;1.33;;;0.00;85.40;;;;;;5031129;28;20038;-70
2021/12/26 08:16:04;;;;;;;4.22;2.30;;;0.00;85.50;;;;;;5055251;28;20474;-72
2021/12/26 08:18:30;;;;;;;0.75;0.75;;;0.00;85.30;;;;;;5032396;28;20040;-72
2021/12/26 08:20:55;;;;;;;2.20;1.23;;;0.10;85.60;;;;;;5034777;28;20033;-71
2021/12/26 08:23:21;;;;;;;3.20;1.85;;;0.00;85.60;;;;;;5030946;28;20112;-71
2021/12/26 08:25:47;;;;;;;6.03;1.80;;;0.10;85.80;;;;;;5033382;28;20038;-72
2021/12/26 08:28:14;;;;;;;0.82;0.82;;;0.00;85.80;;;;;;5032139;28;20059;-71
2021/12/26 08:30:44;;;;;;;1.33;1.13;;;0.10;85.90;;;;;;5032369;28;20035;-72
2021/12/26 08:33:10;;;;;;;2.42;1.60;;;0.10;86.00;;;;;;5034624;28;20555;-71
2021/12/26 08:35:38;;;;;;;1.38;1.27;;;0.10;86.00;;;;;;5030747;28;20494;-73
2021/12/26 08:38:05;;;;;;;2.50;1.63;;;0.10;86.10;;;;;;5030259;28;20128;-73
2021/12/26 08:40:31;;;;;;;1.00;1.00;;;0.10;86.20;;;;;;5033963;28;20057;-72
2021/12/26 08:42:57;;;;;;;1.05;1.02;;;0.10;86.20;;;;;;5030166;28;20037;-73
2021/12/26 08:45:23;;;;;;;1.00;1.00;;;0.10;86.30;;;;;;5031816;28;20048;-74
2021/12/26 08:47:49;;;;;;;1.10;1.10;;;0.10;86.50;;;;;;5031768;28;20482;-73
2021/12/26 08:50:20;;;;;;;5.55;2.28;;;0.10;86.50;;;;;;5032231;28;20049;-73
2021/12/26 08:52:47;;;;;;;1.23;1.13;;;0.10;86.40;;;;;;5036174;28;20385;-73
2021/12/26 08:55:12;;;;;;;4.22;1.95;;;0.10;86.60;;;;;;5030675;28;20073;-73
2021/12/26 08:57:38;;;;;;;1.92;1.48;;;0.10;86.60;;;;;;5032116;28;20437;-73
2021/12/26 09:00:07;;;;;;;1.85;1.63;;;0.10;86.60;;;;;;5033166;28;20037;-72
2021/12/26 09:02:35;;;;;;;1.30;1.20;;;0.10;86.60;;;;;;5031578;28;20081;-73
2021/12/26 09:05:04;;;;;;;1.13;1.02;;;0.20;86.70;;;;;;5033426;28;20141;-71
2021/12/26 09:07:30;;;;;;;1.08;1.00;;;0.20;87.40;;;;;;5033226;28;20049;-71
2021/12/26 09:09:56;;;;;;;0.90;0.90;;;0.20;86.70;;;;;;5032931;28;20087;-71
2021/12/26 09:12:22;;;;;;;1.55;1.45;;;0.20;86.90;;;;;;5030417;28;20025;-71
2021/12/26 09:14:48;;;;;;;2.45;1.70;;;0.20;86.90;;;;;;5032994;28;20032;-71
2021/12/26 09:17:14;;;;;;;2.05;1.50;;;0.20;86.90;;;;;;5036935;28;20033;-71
2021/12/26 09:19:40;;;;;;;3.42;1.23;;;0.20;86.90;;;;;;5042391;28;20543;-71
2021/12/26 09:22:09;;;;;;;3.20;2.08;;;0.20;87.60;;;;;;5041628;28;20025;-71
2021/12/26 09:24:36;;;;;;;2.83;1.73;;;0.20;87.00;;;;;;5039513;28;20052;-71
2021/12/26 09:27:02;;;;;;;3.22;2.10;;;0.20;86.90;;;;;;5044172;28;20029;-71
2021/12/26 09:29:28;;;;;;;2.90;1.60;;;0.20;87.00;;;;;;5039719;28;20029;-71
2021/12/26 09:31:56;;;;;;;1.25;1.05;;;0.20;87.10;;;;;;5034657;28;20040;-71
2021/12/26 09:34:21;;;;;;;1.63;1.40;;;0.20;86.90;;;;;;5035350;28;20041;-71
2021/12/26 09:36:47;;;;;;;5.15;1.33;;;0.20;87.10;;;;;;5036754;28;20030;-71
2021/12/26 09:39:13;;;;;;;2.63;1.60;;;0.20;87.00;;;;;;5036369;28;20036;-71
2021/12/26 09:41:39;;;;;;;1.33;1.13;;;0.20;87.10;;;;;;5041180;28;20079;-71
2021/12/26 09:44:06;;;;;;;2.08;1.65;;;0.20;87.00;;;;;;5040490;28;20469;-71
2021/12/26 09:46:33;;;;;;;1.90;1.45;;;0.30;87.20;;;;;;5037559;28;20036;-72
2021/12/26 09:48:59;;;;;;;1.88;1.33;;;0.30;87.20;;;;;;5037473;28;20395;-72
2021/12/26 09:51:25;;;;;;;2.47;1.48;;;0.30;87.20;;;;;;5041842;28;20105;-72
2021/12/26 09:53:51;;;;;;;2.67;1.67;;;0.30;87.30;;;;;;5034779;28;20136;-72
2021/12/26 09:56:18;;;;;;;2.60;2.13;;;0.30;87.20;;;;;;5036167;28;20113;-71
2021/12/26 09:59:00;;;;;;;1.73;1.30;;;0.40;87.00;;;;;;5035928;28;20041;-69
2021/12/26 10:01:39;;;;;;;1.80;1.70;;;0.40;87.10;;;;;;5035303;28;20444;-70
2021/12/26 10:04:21;;;;;;;5.68;2.25;;;0.40;87.20;;;;;;5035149;28;20056;-69
2021/12/26 10:06:49;;;;;;;3.17;2.17;;;0.40;87.00;;;;;;5036958;28;20037;-69
2021/12/26 10:09:15;;;;;;;3.08;1.63;;;0.50;87.10;;;;;;5035990;28;20026;-69
2021/12/26 10:11:50;;;;;;;3.53;2.10;;;0.50;87.10;;;;;;5034170;28;20022;-70
2021/12/26 10:14:24;;;;;;;1.98;1.65;;;0.50;87.30;;;;;;5036137;28;20036;-69
2021/12/26 10:16:58;;;;;;;2.38;1.45;;;0.60;87.00;;;;;;5033679;28;20029;-69
2021/12/26 10:19:24;;;;;;;3.13;2.10;;;0.60;87.00;;;;;;5033537;28;20120;-68
2021/12/26 10:21:57;;;;;;;1.85;1.70;;;0.60;87.00;;;;;;5032878;28;20442;-70
2021/12/26 10:24:26;;;;;;;1.67;1.23;;;0.60;87.00;;;;;;5033585;28;20091;-69
2021/12/26 10:27:05;;;;;;;4.95;2.30;;;0.70;87.10;;;;;;5033583;28;20268;-69
2021/12/26 10:29:34;;;;;;;1.33;1.23;;;0.70;86.90;;;;;;5035522;28;20041;-69
2021/12/26 10:32:05;;;;;;;4.50;2.58;;;0.70;86.90;;;;;;5038308;28;20029;-68
2021/12/26 10:34:42;;;;;;;5.50;2.40;;;0.70;86.50;;;;;;5038836;28;20040;-71
2021/12/26 10:37:14;;;;;;;3.08;1.70;;;0.70;86.80;;;;;;5037472;28;20431;-69
2021/12/26 10:39:51;;;;;;;1.83;1.65;;;0.70;86.90;;;;;;5057934;28;20075;-69
2021/12/26 10:42:23;;;;;;;3.17;1.70;;;0.70;87.20;;;;;;5032948;28;20056;-69
2021/12/26 10:45:08;;;;;;;7.03;2.00;;;0.80;87.40;;;;;;5033198;28;20041;-70
2021/12/26 10:47:35;;;;;;;0.80;0.80;;;0.80;87.40;;;;;;5034301;28;20029;-68
2021/12/26 10:50:06;;;;;;;3.15;1.65;;;0.80;87.20;;;;;;5033270;28;20025;-70
2021/12/26 10:52:37;;;;;;;1.60;1.50;;;0.90;87.30;;;;;;5035314;28;20025;-70
2021/12/26 10:55:09;;;;;;;2.08;1.40;;;0.90;87.40;;;;;;5036424;28;20092;-69
2021/12/26 10:57:37;;;;;;;1.98;1.40;;;1.00;87.40;;;;;;5033825;28;20465;-70
2021/12/26 11:00:08;;;;;;;1.05;1.05;;;0.90;87.50;;;;;;5033849;28;20033;-70
2021/12/26 11:02:35;;;;;;;1.33;1.23;;;0.90;87.50;;;;;;5036057;28;20025;-70
2021/12/26 11:05:09;;;;;;;3.15;1.80;;;1.00;87.60;;;;;;5032971;28;20040;-70
2021/12/26 11:07:52;;;;;;;1.73;1.63;;;1.00;88.20;;;;;;5034062;28;20103;-70
2021/12/26 11:10:19;;;;;;;1.42;1.33;;;1.10;87.70;;;;;;5033823;28;20045;-70
2021/12/26 11:12:59;;;;;;;1.33;1.27;;;1.10;87.70;;;;;;5032236;28;20033;-70
2021/12/26 11:15:28;;;;;;;1.25;1.02;;;1.20;87.90;;;;;;5036053;28;20124;-70
2021/12/26 11:17:59;;;;;;;2.22;1.77;;;1.20;87.70;;;;;;5032733;28;20048;-70
2021/12/26 11:20:38;;;;;;;3.65;2.25;;;1.20;87.60;;;;;;5032606;28;20037;-71
2021/12/26 11:23:10;;;;;;;4.63;1.65;;;1.20;87.30;;;;;;5033813;28;20068;-73
2021/12/26 11:25:49;;;;;;;2.50;1.77;;;1.30;87.40;;;;;;5032931;28;20112;-71
2021/12/26 11:28:18;;;;;;;3.00;1.85;;;1.30;87.70;;;;;;5034694;28;20040;-70
2021/12/26 11:30:45;;;;;;;1.30;1.25;;;1.30;87.80;;;;;;5032529;28;20397;-69
2021/12/26 11:33:12;;;;;;;1.83;1.58;;;1.30;88.00;;;;;;5032326;28;20389;-74
2021/12/26 11:35:40;;;;;;;2.50;1.95;;;1.40;88.10;;;;;;5032171;28;20022;-69
2021/12/26 11:38:11;;;;;;;2.28;1.50;;;1.40;88.10;;;;;;5032384;28;20028;-70
2021/12/26 11:41:07;;;;;;;2.10;1.90;;;1.40;87.90;;;;;;5032690;28;20501;-69
2021/12/26 11:44:02;;;;;;;4.43;2.10;;;1.40;88.10;;;;;;5031997;28;20056;-68
2021/12/26 11:47:11;;;;;;;3.28;1.77;;;1.40;88.20;;;;;;5032008;28;20041;-68
2021/12/26 11:50:43;;;;;;;3.72;1.90;;;1.30;88.40;;;;;;5031438;28;20087;-69
2021/12/26 11:53:41;;;;;;;1.40;1.30;;;1.40;88.40;;;;;;5030635;28;20033;-70
2021/12/26 11:56:34;;;;;;;3.70;2.03;;;1.40;88.50;;;;;;5031189;28;20099;-72
2021/12/26 11:59:24;;;;;;;3.80;2.15;;;1.40;88.60;;;;;;5033657;28;20052;-69
2021/12/26 12:01:50;;;;;;;1.73;1.50;;;1.50;88.70;;;;;;5045399;28;20401;-73
2021/12/26 12:04:18;;;;;;;1.45;1.35;;;1.50;88.80;;;;;;5037674;28;20037;-71
2021/12/26 12:06:46;;;;;;;1.52;1.35;;;1.50;88.90;;;;;;5039365;28;20040;-71
2021/12/26 12:09:31;;;;;;;0.93;0.93;;;1.50;88.90;;;;;;5032396;28;20433;-70
2021/12/26 12:11:57;;;;;;;3.45;1.90;;;1.50;89.10;;;;;;5042295;28;20039;-72
2021/12/26 12:14:44;;;;;;;1.98;1.33;;;1.60;88.90;;;;;;5051399;28;20033;-69
2021/12/26 12:17:31;;;;;;;1.10;1.00;;;1.60;88.70;;;;;;5049281;28;20040;-71
2021/12/26 12:20:20;;;;;;;4.10;2.17;;;1.60;88.70;;;;;;5032069;28;20037;-70
2021/12/26 12:23:04;;;;;;;4.85;2.40;;;1.70;88.40;;;;;;5048851;28;20036;-68
2021/12/26 12:25:36;;;;;;;;;;;1.70;88.30;;;;;;5038951;28;20045;-68
2021/12/26 12:28:08;;;;;;;4.70;1.95;;;1.80;88.50;;;;;;5042588;28;20371;-68
2021/12/26 12:30:35;;;;;;;3.85;2.53;;;1.80;88.50;;;;;;5045162;28;20794;-68
2021/12/26 12:33:33;;;;;;;2.55;1.75;;;1.80;88.50;;;;;;5031862;28;20040;-67
2021/12/26 12:36:09;;;;;;;4.07;1.88;;;1.80;88.80;;;;;;5026734;28;20120;-67
2021/12/26 12:38:40;;;;;;;2.97;2.10;;;1.80;89.00;;;;;;5038392;28;20037;-67
2021/12/26 12:41:38;;;;;;;3.00;1.92;;;1.90;88.80;;;;;;5041182;28;20038;-68
2021/12/26 12:44:21;;;;;;;1.70;1.20;;;1.90;88.80;;;;;;5032553;28;20483;-68
2021/12/26 12:47:07;;;;;;;3.50;2.40;;;1.90;89.10;;;;;;5041686;28;20099;-69
2021/12/26 12:49:39;;;;;;;1.38;1.00;;;2.00;89.10;;;;;;5036979;28;20119;-68
2021/12/26 12:52:05;;;;;;;3.53;2.42;;;2.00;89.30;;;;;;5038766;28;20496;-68
2021/12/26 12:54:32;;;;;;;3.15;1.73;;;2.10;89.30;;;;;;5041913;28;20049;-69
2021/12/26 12:57:04;;;;;;;5.57;2.38;;;2.00;89.30;;;;;;5043811;28;20081;-69
2021/12/26 12:59:38;;;;;;;1.25;1.10;;;2.10;89.20;;;;;;5035210;28;20491;-69
2021/12/26 13:02:27;;;;;;;1.10;1.08;;;2.20;89.90;;;;;;5044166;28;20029;-69
2021/12/26 13:04:53;;;;;;;2.80;1.80;;;2.20;89.20;;;;;;5031784;28;20408;-70
2021/12/26 13:07:29;;;;;;;3.63;2.15;;;2.20;89.30;;;;;;5031562;28;20034;-69
2021/12/26 13:09:59;;;;;;;1.75;1.38;;;2.20;89.00;;;;;;5048833;28;20118;-69
2021/12/26 13:12:25;;;;;;;1.50;1.40;;;2.20;89.20;;;;;;5050938;28;20040;-68
2021/12/26 13:14:56;;;;;;;1.35;1.25;;;2.30;89.50;;;;;;5037509;28;20109;-69
2021/12/26 13:17:35;;;;;;;2.38;1.45;;;2.30;89.60;;;;;;5037690;28;20030;-68
2021/12/26 13:20:05;;;;;;;5.53;1.67;;;2.30;89.60;;;;;;5039604;28;20553;-70
2021/12/26 13:22:58;;;;;;;0.98;0.93;;;2.30;89.60;;;;;;5036846;28;20749;-68
2021/12/26 13:25:31;;;;;;;1.55;1.42;;;2.30;89.90;;;;;;5041841;28;20053;-68